Time;durP1;ratioP1;P1;durP2;ratioP2;P2;SDS_P1;SDS_P2;PMS_P1;PMS_P2;Temp;Humidity;BMP_temperature;BMP_pressure;BME280_temperature;BME280_humidity;BME280_pressure;Samples;Min_cycle;Max_cycle;Signal;HPM_P1;HPM_P2
2023/03/19 00:00:04;;;;;;;0.82;0.80;;;;;;;;;;4567936;28;20129;-63
2023/03/19 00:02:17;;;;;;;0.80;0.80;;;;;;;;;;4568737;28;20117;-63
2023/03/19 00:04:27;;;;;;;0.73;0.70;;;;;;;;;;4570367;28;20606;-63
2023/03/19 00:06:38;;;;;;;1.08;0.80;;;;;;;;;;4570906;28;20025;-63
2023/03/19 00:08:48;;;;;;;1.20;0.90;;;;;;;;;;4570223;28;20040;-63
2023/03/19 00:11:05;;;;;;;0.93;0.82;;;;;;;;;;4570056;28;20038;-63
2023/03/19 00:13:15;;;;;;;1.35;0.88;;;;;;;;;;4570797;28;20032;-63
2023/03/19 00:15:26;;;;;;;1.08;0.80;;;;;;;;;;4568129;28;21155;-63
2023/03/19 00:17:36;;;;;;;0.93;0.80;;;;;;;;;;4569096;28;20035;-63
2023/03/19 00:19:46;;;;;;;0.80;0.70;;;;;;;;;;4569758;28;24151;-63
2023/03/19 00:21:57;;;;;;;0.80;0.80;;;;;;;;;;4569988;28;20554;-63
2023/03/19 00:24:08;;;;;;;1.25;0.93;;;;;;;;;;4569630;27;20204;-63
2023/03/19 00:26:19;;;;;;;0.98;0.88;;;;;;;;;;4566764;28;20818;-63
2023/03/19 00:28:29;;;;;;;0.90;0.90;;;;;;;;;;4569303;28;20194;-62
2023/03/19 00:30:40;;;;;;;1.00;0.90;;;;;;;;;;4556544;28;20024;-63
2023/03/19 00:32:50;;;;;;;1.05;0.95;;;;;;;;;;4569253;28;20036;-62
2023/03/19 00:35:02;;;;;;;1.00;0.88;;;;;;;;;;4554631;28;20063;-63
2023/03/19 00:37:15;;;;;;;0.90;0.90;;;;;;;;;;4569967;27;20040;-63
2023/03/19 00:39:25;;;;;;;1.00;0.90;;;;;;;;;;4569376;28;20046;-64
2023/03/19 00:41:36;;;;;;;0.90;0.90;;;;;;;;;;4568745;27;20043;-63
2023/03/19 00:43:46;;;;;;;1.27;0.90;;;;;;;;;;4553811;28;20515;-63
2023/03/19 00:45:57;;;;;;;1.05;0.80;;;;;;;;;;4550731;28;20044;-63
2023/03/19 00:48:07;;;;;;;1.13;0.90;;;;;;;;;;4551554;28;20024;-63
2023/03/19 00:50:18;;;;;;;0.88;0.70;;;;;;;;;;4551003;28;20059;-62
2023/03/19 00:52:29;;;;;;;1.00;0.90;;;;;;;;;;4569643;28;20020;-63
2023/03/19 00:54:40;;;;;;;1.00;0.90;;;;;;;;;;4571528;28;21022;-63
2023/03/19 00:56:51;;;;;;;0.98;0.82;;;;;;;;;;4553666;28;20020;-63
2023/03/19 00:59:01;;;;;;;1.10;0.70;;;;;;;;;;4568746;28;20047;-63
2023/03/19 01:01:15;;;;;;;0.80;0.75;;;;;;;;;;4549144;28;20064;-63
2023/03/19 01:03:27;;;;;;;1.10;0.90;;;;;;;;;;4554227;28;20872;-63
2023/03/19 01:05:37;;;;;;;1.23;1.00;;;;;;;;;;4552588;28;20191;-63
2023/03/19 01:07:47;;;;;;;1.23;1.10;;;;;;;;;;4569768;28;21433;-63
2023/03/19 01:09:58;;;;;;;1.20;1.10;;;;;;;;;;4545404;28;20041;-63
2023/03/19 01:12:08;;;;;;;1.13;1.02;;;;;;;;;;4551675;28;20537;-63
2023/03/19 01:14:19;;;;;;;1.23;1.10;;;;;;;;;;4570053;28;20039;-63
2023/03/19 01:16:29;;;;;;;1.65;1.00;;;;;;;;;;4570419;28;20039;-63
2023/03/19 01:18:40;;;;;;;1.10;1.00;;;;;;;;;;4553842;28;20047;-63
2023/03/19 01:20:50;;;;;;;1.55;1.40;;;;;;;;;;4555192;27;20036;-62
2023/03/19 01:23:01;;;;;;;1.13;1.02;;;;;;;;;;4553831;28;20029;-62
2023/03/19 01:25:13;;;;;;;1.00;0.90;;;;;;;;;;4555278;28;20036;-63
2023/03/19 01:27:27;;;;;;;1.35;1.10;;;;;;;;;;4553668;28;20314;-63
2023/03/19 01:29:38;;;;;;;1.15;1.05;;;;;;;;;;4548399;28;20040;-63
2023/03/19 01:32:19;;;;;;;1.20;1.10;;;;;;;;;;4540843;28;20130;-62
2023/03/19 01:34:59;;;;;;;1.40;1.00;;;;;;;;;;4545631;28;20089;-63
2023/03/19 01:37:09;;;;;;;1.05;0.90;;;;;;;;;;4552656;28;20082;-63
2023/03/19 01:39:21;;;;;;;1.77;1.00;;;;;;;;;;4567770;28;20036;-63
2023/03/19 01:41:32;;;;;;;1.23;1.13;;;;;;;;;;4545203;28;20052;-63
2023/03/19 01:43:59;;;;;;;1.20;1.10;;;;;;;;;;4570446;28;20563;-63
2023/03/19 01:46:28;;;;;;;1.63;0.90;;;;;;;;;;4551745;28;20024;-63
2023/03/19 01:48:59;;;;;;;1.20;1.05;;;;;;;;;;4547956;27;20032;-63
2023/03/19 01:51:13;;;;;;;1.20;1.10;;;;;;;;;;4570131;28;20031;-64
2023/03/19 01:53:32;;;;;;;1.52;1.08;;;;;;;;;;4567358;28;20032;-63
2023/03/19 01:56:15;;;;;;;1.05;0.95;;;;;;;;;;4567303;28;20744;-63
2023/03/19 01:58:42;;;;;;;1.20;1.10;;;;;;;;;;4555346;28;21304;-63
2023/03/19 02:01:02;;;;;;;0.90;0.90;;;;;;;;;;4568658;27;20067;-63
2023/03/19 02:03:13;;;;;;;1.40;1.10;;;;;;;;;;4567134;27;20166;-63
2023/03/19 02:05:59;;;;;;;1.25;0.93;;;;;;;;;;4549934;28;20763;-63
2023/03/19 02:08:13;;;;;;;1.20;1.08;;;;;;;;;;4562728;28;20048;-63
2023/03/19 02:10:23;;;;;;;1.23;1.00;;;;;;;;;;4568225;28;20036;-63
2023/03/19 02:12:34;;;;;;;1.20;1.10;;;;;;;;;;4567549;27;20036;-63
2023/03/19 02:14:45;;;;;;;0.80;0.80;;;;;;;;;;4567160;28;20024;-62
2023/03/19 02:16:55;;;;;;;1.77;0.90;;;;;;;;;;4532233;28;20044;-63
2023/03/19 02:19:10;;;;;;;0.98;0.90;;;;;;;;;;4566375;28;20046;-63
2023/03/19 02:21:21;;;;;;;1.20;0.90;;;;;;;;;;4587175;27;20352;-63
2023/03/19 02:23:39;;;;;;;1.35;1.10;;;;;;;;;;4585410;27;20116;-63
2023/03/19 02:26:07;;;;;;;1.23;0.95;;;;;;;;;;4569089;28;20032;-63
2023/03/19 02:28:18;;;;;;;0.80;0.80;;;;;;;;;;4570450;28;20032;-65
2023/03/19 02:30:31;;;;;;;1.10;1.00;;;;;;;;;;4553954;28;20066;-63
2023/03/19 02:32:47;;;;;;;1.10;1.00;;;;;;;;;;4551510;28;20032;-63
2023/03/19 02:34:57;;;;;;;1.60;1.08;;;;;;;;;;4569304;28;20071;-63
2023/03/19 02:37:13;;;;;;;1.33;1.00;;;;;;;;;;4569681;27;20032;-63
2023/03/19 02:39:48;;;;;;;;;;;;;;;;;;4570798;28;20051;-63
2023/03/19 02:41:59;;;;;;;0.90;0.90;;;;;;;;;;4560996;28;19920;-63
2023/03/19 02:44:11;;;;;;;0.85;0.82;;;;;;;;;;4571189;28;20028;-63
2023/03/19 02:46:21;;;;;;;1.00;0.90;;;;;;;;;;4570471;28;20058;-63
2023/03/19 02:48:32;;;;;;;1.10;0.90;;;;;;;;;;4569845;28;20494;-63
2023/03/19 02:50:42;;;;;;;1.27;0.90;;;;;;;;;;4564584;27;20032;-64
2023/03/19 02:52:53;;;;;;;1.48;1.20;;;;;;;;;;4567142;28;20032;-63
2023/03/19 02:55:03;;;;;;;1.50;1.10;;;;;;;;;;4567986;28;20040;-63
2023/03/19 02:57:14;;;;;;;1.08;1.00;;;;;;;;;;4555460;28;20124;-63
2023/03/19 02:59:25;;;;;;;1.10;1.00;;;;;;;;;;4567311;27;20142;-62
2023/03/19 03:01:36;;;;;;;1.15;1.05;;;;;;;;;;4566285;28;20024;-63
2023/03/19 03:03:46;;;;;;;1.20;1.10;;;;;;;;;;4553781;27;20118;-63
2023/03/19 03:05:57;;;;;;;1.13;1.10;;;;;;;;;;4568188;28;20174;-63
2023/03/19 03:08:08;;;;;;;1.23;1.13;;;;;;;;;;4570035;27;20118;-63
2023/03/19 03:10:18;;;;;;;1.05;0.95;;;;;;;;;;4561991;27;20523;-63
2023/03/19 03:12:30;;;;;;;1.05;0.95;;;;;;;;;;4566698;28;20032;-63
2023/03/19 03:14:40;;;;;;;1.30;1.20;;;;;;;;;;4570787;28;20032;-63
2023/03/19 03:16:51;;;;;;;1.30;1.20;;;;;;;;;;4569773;27;20025;-63
2023/03/19 03:19:02;;;;;;;1.30;1.20;;;;;;;;;;4567530;28;20645;-63
2023/03/19 03:21:12;;;;;;;1.00;0.90;;;;;;;;;;4568054;28;20028;-63
2023/03/19 03:23:23;;;;;;;1.20;1.10;;;;;;;;;;4569363;27;20515;-63
2023/03/19 03:25:34;;;;;;;1.33;1.02;;;;;;;;;;4572123;28;20057;-63
2023/03/19 03:27:45;;;;;;;0.85;0.85;;;;;;;;;;4571841;28;20209;-62
2023/03/19 03:29:56;;;;;;;1.20;1.00;;;;;;;;;;4570672;28;20104;-63
2023/03/19 03:32:06;;;;;;;1.40;1.02;;;;;;;;;;4570640;27;20713;-63
2023/03/19 03:34:17;;;;;;;0.95;0.95;;;;;;;;;;4569427;28;20467;-63
2023/03/19 03:36:27;;;;;;;1.50;1.20;;;;;;;;;;4570872;27;20027;-63
2023/03/19 03:38:38;;;;;;;1.23;1.10;;;;;;;;;;4570687;28;20096;-63
2023/03/19 03:40:52;;;;;;;1.20;1.10;;;;;;;;;;4552292;28;20033;-63
2023/03/19 03:43:04;;;;;;;1.20;1.10;;;;;;;;;;4552263;28;20051;-63
2023/03/19 03:45:17;;;;;;;1.20;1.10;;;;;;;;;;4571138;28;20037;-63
2023/03/19 03:47:28;;;;;;;1.25;1.10;;;;;;;;;;4554920;28;20230;-63
2023/03/19 03:49:39;;;;;;;1.10;1.00;;;;;;;;;;4570220;28;20093;-63
2023/03/19 03:51:51;;;;;;;0.90;0.90;;;;;;;;;;4571078;28;20039;-63
2023/03/19 03:54:02;;;;;;;1.67;1.10;;;;;;;;;;4572610;28;20040;-63
2023/03/19 03:56:12;;;;;;;1.10;1.00;;;;;;;;;;4556307;28;20056;-63
2023/03/19 03:58:23;;;;;;;0.90;0.90;;;;;;;;;;4553208;28;20063;-62
2023/03/19 04:00:34;;;;;;;2.00;1.20;;;;;;;;;;4572910;28;20082;-62
2023/03/19 04:02:45;;;;;;;1.10;1.00;;;;;;;;;;4570828;28;20036;-63
2023/03/19 04:04:58;;;;;;;1.05;0.95;;;;;;;;;;4553850;28;20602;-63
2023/03/19 04:07:09;;;;;;;1.33;0.98;;;;;;;;;;4571946;28;20059;-62
2023/03/19 04:09:25;;;;;;;1.50;1.20;;;;;;;;;;4590712;27;20028;-63
2023/03/19 04:11:38;;;;;;;1.20;1.10;;;;;;;;;;4572653;28;20637;-63
2023/03/19 04:13:49;;;;;;;1.52;1.10;;;;;;;;;;4572687;28;20617;-62
2023/03/19 04:15:59;;;;;;;1.52;1.30;;;;;;;;;;4569694;28;20117;-63
2023/03/19 04:18:10;;;;;;;0.90;0.90;;;;;;;;;;4567715;28;20036;-63
2023/03/19 04:20:22;;;;;;;1.20;1.10;;;;;;;;;;4573828;27;20573;-63
2023/03/19 04:22:32;;;;;;;1.20;1.00;;;;;;;;;;4570102;27;20031;-63
2023/03/19 04:24:43;;;;;;;1.50;1.10;;;;;;;;;;4572051;28;20507;-63
2023/03/19 04:26:54;;;;;;;1.08;1.00;;;;;;;;;;4570268;27;20579;-64
2023/03/19 04:29:04;;;;;;;0.90;0.90;;;;;;;;;;4570492;28;20028;-63
2023/03/19 04:31:15;;;;;;;0.88;0.88;;;;;;;;;;4572220;28;20492;-62
2023/03/19 04:33:28;;;;;;;1.13;1.08;;;;;;;;;;4570435;27;20567;-63
2023/03/19 04:35:39;;;;;;;1.13;0.98;;;;;;;;;;4552353;28;20032;-62
2023/03/19 04:37:49;;;;;;;1.10;1.00;;;;;;;;;;4572040;27;20044;-64
2023/03/19 04:40:02;;;;;;;1.48;1.10;;;;;;;;;;4572009;27;20044;-63
2023/03/19 04:42:17;;;;;;;0.80;0.80;;;;;;;;;;4569075;27;20036;-63
2023/03/19 04:44:36;;;;;;;0.82;0.82;;;;;;;;;;4573876;27;20032;-64
2023/03/19 04:46:47;;;;;;;1.15;0.93;;;;;;;;;;4569623;27;20040;-62
2023/03/19 04:49:00;;;;;;;1.13;1.00;;;;;;;;;;4570483;28;20642;-63
2023/03/19 04:51:11;;;;;;;1.30;1.00;;;;;;;;;;4567846;28;20079;-63
2023/03/19 04:53:23;;;;;;;0.90;0.90;;;;;;;;;;4571614;27;20059;-62
2023/03/19 04:55:34;;;;;;;0.90;0.82;;;;;;;;;;4572571;28;20028;-63
2023/03/19 04:57:51;;;;;;;1.05;0.90;;;;;;;;;;4571812;28;20032;-63
2023/03/19 05:00:05;;;;;;;0.88;0.85;;;;;;;;;;4571204;28;20344;-65
2023/03/19 05:02:17;;;;;;;1.52;1.00;;;;;;;;;;4572006;27;20571;-63
2023/03/19 05:04:28;;;;;;;2.35;0.90;;;;;;;;;;4569124;27;20228;-62
2023/03/19 05:06:44;;;;;;;1.10;1.00;;;;;;;;;;4569730;28;20035;-63
2023/03/19 05:08:55;;;;;;;0.82;0.80;;;;;;;;;;4585041;27;20032;-62
2023/03/19 05:11:06;;;;;;;1.00;0.90;;;;;;;;;;4573544;27;20040;-63
2023/03/19 05:13:29;;;;;;;1.02;0.90;;;;;;;;;;4588922;27;20039;-62
2023/03/19 05:15:43;;;;;;;1.20;1.10;;;;;;;;;;4569903;28;20388;-60
2023/03/19 05:17:55;;;;;;;0.95;0.80;;;;;;;;;;4570488;28;20039;-60
2023/03/19 05:20:08;;;;;;;1.25;1.08;;;;;;;;;;4572565;27;20035;-60
2023/03/19 05:22:19;;;;;;;0.90;0.90;;;;;;;;;;4567305;28;20047;-60
2023/03/19 05:24:29;;;;;;;0.90;0.90;;;;;;;;;;4566444;28;20039;-60
2023/03/19 05:26:41;;;;;;;1.10;1.00;;;;;;;;;;4568254;28;20032;-60
2023/03/19 05:29:09;;;;;;;1.92;1.20;;;;;;;;;;4564790;27;20036;-60
2023/03/19 05:31:30;;;;;;;0.95;0.93;;;;;;;;;;4567672;28;20040;-60
2023/03/19 05:33:41;;;;;;;1.50;1.00;;;;;;;;;;4568900;27;20591;-60
2023/03/19 05:35:52;;;;;;;1.10;1.00;;;;;;;;;;4570410;28;20147;-60
2023/03/19 05:38:12;;;;;;;1.65;1.00;;;;;;;;;;4570573;27;20147;-60
2023/03/19 05:40:24;;;;;;;1.10;1.00;;;;;;;;;;4566563;28;20694;-61
2023/03/19 05:42:36;;;;;;;1.15;1.05;;;;;;;;;;4567589;28;20031;-61
2023/03/19 05:44:47;;;;;;;0.90;0.90;;;;;;;;;;4570858;28;20028;-60
2023/03/19 05:47:05;;;;;;;0.98;0.85;;;;;;;;;;4566352;28;20032;-61
2023/03/19 05:49:18;;;;;;;1.80;0.90;;;;;;;;;;4570079;28;20057;-61
2023/03/19 05:51:29;;;;;;;1.25;0.85;;;;;;;;;;4571672;27;20488;-63
2023/03/19 05:53:40;;;;;;;0.80;0.80;;;;;;;;;;4569821;27;20031;-62
2023/03/19 05:56:09;;;;;;;0.82;0.82;;;;;;;;;;4568607;28;20040;-61
2023/03/19 05:58:31;;;;;;;0.80;0.77;;;;;;;;;;4564910;28;20359;-62
2023/03/19 06:00:41;;;;;;;0.80;0.80;;;;;;;;;;4553031;28;20028;-63
2023/03/19 06:02:53;;;;;;;1.13;0.90;;;;;;;;;;4567764;28;20036;-63
2023/03/19 06:05:16;;;;;;;0.80;0.80;;;;;;;;;;4555629;28;20552;-61
2023/03/19 06:07:27;;;;;;;1.00;0.90;;;;;;;;;;4569756;28;20032;-61
2023/03/19 06:09:39;;;;;;;0.75;0.73;;;;;;;;;;4587246;27;20019;-61
2023/03/19 06:11:50;;;;;;;0.90;0.80;;;;;;;;;;4569608;28;20031;-61
2023/03/19 06:14:29;;;;;;;0.90;0.90;;;;;;;;;;4567948;27;20102;-61
2023/03/19 06:16:58;;;;;;;1.15;0.82;;;;;;;;;;4568309;28;20048;-63
2023/03/19 06:19:09;;;;;;;1.35;0.90;;;;;;;;;;4569022;28;20078;-61
2023/03/19 06:21:19;;;;;;;0.70;0.70;;;;;;;;;;4570597;27;21201;-61
2023/03/19 06:23:30;;;;;;;0.70;0.70;;;;;;;;;;4569428;27;20369;-62
2023/03/19 06:25:40;;;;;;;1.10;0.90;;;;;;;;;;4562927;27;20028;-61
2023/03/19 06:27:51;;;;;;;0.88;0.80;;;;;;;;;;4568164;28;20047;-64
2023/03/19 06:30:09;;;;;;;1.30;0.80;;;;;;;;;;4586613;27;20036;-63
2023/03/19 06:32:20;;;;;;;1.00;0.77;;;;;;;;;;4569413;28;20020;-63
2023/03/19 06:34:32;;;;;;;0.70;0.70;;;;;;;;;;4565198;27;20040;-63
2023/03/19 06:36:43;;;;;;;0.95;0.70;;;;;;;;;;4569552;28;20036;-62
2023/03/19 06:38:55;;;;;;;0.80;0.80;;;;;;;;;;4569721;28;20028;-64
2023/03/19 06:41:06;;;;;;;0.80;0.80;;;;;;;;;;4566084;28;20047;-63
2023/03/19 06:43:17;;;;;;;1.00;0.90;;;;;;;;;;4567557;28;20078;-63
2023/03/19 06:45:27;;;;;;;1.13;0.80;;;;;;;;;;4568592;28;20119;-63
2023/03/19 06:47:40;;;;;;;1.10;1.00;;;;;;;;;;4583539;27;20040;-64
2023/03/19 06:49:50;;;;;;;0.90;0.90;;;;;;;;;;4566800;28;20710;-63
2023/03/19 06:52:01;;;;;;;1.10;0.95;;;;;;;;;;4567363;27;20122;-63
2023/03/19 06:54:11;;;;;;;0.80;0.80;;;;;;;;;;4583439;27;20036;-63
2023/03/19 06:56:22;;;;;;;1.20;1.10;;;;;;;;;;4566557;28;27017;-63
2023/03/19 06:58:34;;;;;;;1.33;1.00;;;;;;;;;;4571045;27;20039;-63
2023/03/19 07:00:44;;;;;;;1.13;0.95;;;;;;;;;;4570452;28;20086;-64
2023/03/19 07:02:55;;;;;;;1.20;1.10;;;;;;;;;;4570760;28;20082;-63
2023/03/19 07:05:05;;;;;;;1.00;0.90;;;;;;;;;;4570843;28;20029;-63
2023/03/19 07:07:16;;;;;;;1.52;0.93;;;;;;;;;;4565152;27;20873;-63
2023/03/19 07:09:26;;;;;;;0.88;0.88;;;;;;;;;;4571067;27;20040;-63
2023/03/19 07:11:37;;;;;;;0.90;0.90;;;;;;;;;;4571089;28;20044;-64
2023/03/19 07:13:47;;;;;;;0.68;0.68;;;;;;;;;;4570099;28;20448;-63
2023/03/19 07:15:58;;;;;;;1.00;0.90;;;;;;;;;;4569574;28;20036;-63
2023/03/19 07:18:09;;;;;;;1.05;0.77;;;;;;;;;;4548640;27;20582;-63
2023/03/19 07:20:19;;;;;;;1.45;0.80;;;;;;;;;;4567425;28;20035;-63
2023/03/19 07:22:30;;;;;;;1.10;0.80;;;;;;;;;;4571481;28;20042;-62
2023/03/19 07:24:41;;;;;;;0.80;0.80;;;;;;;;;;4572588;27;21833;-63
2023/03/19 07:26:51;;;;;;;1.00;0.80;;;;;;;;;;4569591;27;20768;-63
2023/03/19 07:29:01;;;;;;;1.20;0.90;;;;;;;;;;4570340;27;20483;-63
2023/03/19 07:31:12;;;;;;;0.90;0.80;;;;;;;;;;4570068;28;20048;-63
2023/03/19 07:33:22;;;;;;;0.98;0.90;;;;;;;;;;4570544;28;20024;-63
2023/03/19 07:35:33;;;;;;;1.02;0.93;;;;;;;;;;4571707;28;20135;-62
2023/03/19 07:37:43;;;;;;;1.00;0.90;;;;;;;;;;4570675;28;20119;-64
2023/03/19 07:39:54;;;;;;;0.60;0.60;;;;;;;;;;4569506;27;20032;-63
2023/03/19 07:42:05;;;;;;;1.50;0.90;;;;;;;;;;4553794;28;20040;-63
2023/03/19 07:44:15;;;;;;;0.65;0.65;;;;;;;;;;4551342;28;20553;-63
2023/03/19 07:46:27;;;;;;;1.00;0.90;;;;;;;;;;4570479;28;20048;-63
2023/03/19 07:48:37;;;;;;;0.90;0.88;;;;;;;;;;4570932;28;21138;-63
2023/03/19 07:50:50;;;;;;;0.82;0.82;;;;;;;;;;4552986;28;20066;-62
2023/03/19 07:53:00;;;;;;;0.93;0.80;;;;;;;;;;4535735;28;20568;-63
2023/03/19 07:55:11;;;;;;;0.77;0.77;;;;;;;;;;4569943;28;20036;-63
2023/03/19 07:57:21;;;;;;;0.80;0.80;;;;;;;;;;4569919;28;20131;-62
2023/03/19 07:59:32;;;;;;;0.90;0.80;;;;;;;;;;4569993;28;20042;-63
2023/03/19 08:01:42;;;;;;;0.80;0.80;;;;;;;;;;4570105;28;20033;-63
2023/03/19 08:03:53;;;;;;;0.85;0.85;;;;;;;;;;4545523;28;20064;-63
2023/03/19 08:06:04;;;;;;;1.63;0.85;;;;;;;;;;4538990;28;20808;-64
2023/03/19 08:08:15;;;;;;;1.50;1.20;;;;;;;;;;4552264;28;20090;-63
2023/03/19 08:10:26;;;;;;;1.38;1.27;;;;;;;;;;4570370;28;20033;-63
2023/03/19 08:12:39;;;;;;;1.90;1.70;;;;;;;;;;4571557;28;20064;-64
2023/03/19 08:14:50;;;;;;;1.45;1.20;;;;;;;;;;4553293;28;20043;-62
2023/03/19 08:17:00;;;;;;;0.88;0.80;;;;;;;;;;4570977;28;20681;-64
2023/03/19 08:19:11;;;;;;;1.02;0.80;;;;;;;;;;4550317;28;20044;-63
2023/03/19 08:21:21;;;;;;;1.08;0.80;;;;;;;;;;4551932;28;20036;-63
2023/03/19 08:23:32;;;;;;;0.82;0.70;;;;;;;;;;4555696;28;25174;-64
2023/03/19 08:25:42;;;;;;;0.85;0.70;;;;;;;;;;4570682;28;20563;-62
2023/03/19 08:27:53;;;;;;;0.70;0.60;;;;;;;;;;4570446;28;20040;-61
2023/03/19 08:30:06;;;;;;;0.75;0.50;;;;;;;;;;4569797;28;20031;-61
2023/03/19 08:32:16;;;;;;;1.40;0.70;;;;;;;;;;4570820;28;20032;-61
2023/03/19 08:34:26;;;;;;;0.55;0.55;;;;;;;;;;4571264;28;20488;-62
2023/03/19 08:36:37;;;;;;;0.55;0.50;;;;;;;;;;4569485;28;20032;-63
2023/03/19 08:38:47;;;;;;;0.95;0.70;;;;;;;;;;4545745;28;20040;-61
2023/03/19 08:41:01;;;;;;;0.60;0.60;;;;;;;;;;4569765;28;20509;-61
2023/03/19 08:43:11;;;;;;;0.50;0.50;;;;;;;;;;4552813;28;20623;-62
2023/03/19 08:45:21;;;;;;;0.68;0.57;;;;;;;;;;4569665;28;20494;-62
2023/03/19 08:47:32;;;;;;;0.52;0.52;;;;;;;;;;4552354;28;20919;-62
2023/03/19 08:49:42;;;;;;;0.98;0.55;;;;;;;;;;4568899;28;20024;-62
2023/03/19 08:51:53;;;;;;;0.50;0.50;;;;;;;;;;4552872;28;20028;-61
2023/03/19 08:54:03;;;;;;;0.50;0.50;;;;;;;;;;4570539;28;20040;-62
2023/03/19 08:56:14;;;;;;;0.55;0.50;;;;;;;;;;4569150;28;20028;-62
2023/03/19 08:58:25;;;;;;;0.60;0.50;;;;;;;;;;4569491;28;20183;-62
2023/03/19 09:00:35;;;;;;;0.40;0.40;;;;;;;;;;4569281;28;20032;-61
2023/03/19 09:02:46;;;;;;;0.45;0.45;;;;;;;;;;4570275;28;21050;-62
2023/03/19 09:04:56;;;;;;;0.60;0.45;;;;;;;;;;4569854;28;20032;-63
2023/03/19 09:07:07;;;;;;;0.50;0.50;;;;;;;;;;4551344;28;20140;-62
2023/03/19 09:09:22;;;;;;;1.00;0.60;;;;;;;;;;4552060;28;20035;-63
2023/03/19 09:11:33;;;;;;;0.50;0.50;;;;;;;;;;4552344;28;20066;-62
2023/03/19 09:13:43;;;;;;;0.60;0.60;;;;;;;;;;4569961;28;20511;-63
2023/03/19 09:15:54;;;;;;;0.93;0.68;;;;;;;;;;4551773;28;20036;-61
2023/03/19 09:18:05;;;;;;;0.50;0.50;;;;;;;;;;4551523;28;20144;-63
2023/03/19 09:20:16;;;;;;;0.55;0.55;;;;;;;;;;4551765;28;20794;-62
2023/03/19 09:22:26;;;;;;;0.57;0.57;;;;;;;;;;4568715;28;20036;-63
2023/03/19 09:24:37;;;;;;;0.60;0.50;;;;;;;;;;4569724;28;20040;-63
2023/03/19 09:26:48;;;;;;;0.55;0.55;;;;;;;;;;4570633;28;20024;-62
2023/03/19 09:28:58;;;;;;;0.57;0.50;;;;;;;;;;4570757;28;20863;-64
2023/03/19 09:31:10;;;;;;;0.50;0.50;;;;;;;;;;4567063;28;20582;-62
2023/03/19 09:33:20;;;;;;;0.68;0.57;;;;;;;;;;4569283;28;20024;-63
2023/03/19 09:35:32;;;;;;;1.27;0.52;;;;;;;;;;4570145;28;20481;-63
2023/03/19 09:37:42;;;;;;;0.55;0.50;;;;;;;;;;4568404;28;20504;-62
2023/03/19 09:39:53;;;;;;;0.40;0.40;;;;;;;;;;4568324;28;20044;-62
2023/03/19 09:42:40;;;;;;;0.50;0.50;;;;;;;;;;4551507;28;22964;-63
2023/03/19 09:44:51;;;;;;;0.52;0.50;;;;;;;;;;4551785;28;20731;-63
2023/03/19 09:47:11;;;;;;;0.63;0.50;;;;;;;;;;4553074;28;20091;-63
2023/03/19 09:49:27;;;;;;;0.90;0.75;;;;;;;;;;4537982;28;20504;-63
2023/03/19 09:52:08;;;;;;;0.82;0.80;;;;;;;;;;4550259;28;20091;-63
2023/03/19 09:54:26;;;;;;;0.80;0.70;;;;;;;;;;4551900;28;20032;-63
2023/03/19 09:56:36;;;;;;;0.65;0.65;;;;;;;;;;4570648;28;20040;-63
2023/03/19 09:58:47;;;;;;;0.60;0.60;;;;;;;;;;4568504;28;20028;-63
2023/03/19 10:00:58;;;;;;;0.70;0.70;;;;;;;;;;4569718;28;20200;-63
2023/03/19 10:03:24;;;;;;;0.75;0.75;;;;;;;;;;4569735;28;20105;-63
2023/03/19 10:05:56;;;;;;;0.80;0.70;;;;;;;;;;4570063;28;20032;-62
2023/03/19 10:08:25;;;;;;;0.75;0.75;;;;;;;;;;4570035;28;20027;-63
2023/03/19 10:10:57;;;;;;;0.70;0.70;;;;;;;;;;4568578;28;20665;-63
2023/03/19 10:13:20;;;;;;;1.00;0.60;;;;;;;;;;4536936;28;20033;-63
2023/03/19 10:15:31;;;;;;;0.52;0.50;;;;;;;;;;4551154;28;20080;-63
2023/03/19 10:17:50;;;;;;;0.68;0.65;;;;;;;;;;4568849;28;20034;-63
2023/03/19 10:20:06;;;;;;;0.60;0.60;;;;;;;;;;4553816;28;20048;-62
2023/03/19 10:22:23;;;;;;;0.70;0.50;;;;;;;;;;4568528;28;20052;-63
2023/03/19 10:24:37;;;;;;;0.60;0.57;;;;;;;;;;4550153;28;20068;-63
2023/03/19 10:26:49;;;;;;;0.60;0.55;;;;;;;;;;4571016;28;20078;-62
2023/03/19 10:29:17;;;;;;;0.50;0.50;;;;;;;;;;4554052;28;20156;-63
2023/03/19 10:31:39;;;;;;;0.50;0.50;;;;;;;;;;4550831;28;20043;-63
2023/03/19 10:34:03;;;;;;;0.60;0.60;;;;;;;;;;4571876;28;20540;-63
2023/03/19 10:36:13;;;;;;;0.60;0.60;;;;;;;;;;4556550;28;20016;-63
2023/03/19 10:38:25;;;;;;;0.70;0.70;;;;;;;;;;4571328;28;20044;-64
2023/03/19 10:41:03;;;;;;;0.60;0.50;;;;;;;;;;4558561;28;20640;-63
2023/03/19 10:43:20;;;;;;;0.80;0.70;;;;;;;;;;4540521;28;20536;-64
2023/03/19 10:45:35;;;;;;;0.68;0.68;;;;;;;;;;4569076;28;20032;-63
2023/03/19 10:47:46;;;;;;;0.60;0.60;;;;;;;;;;4570801;28;20089;-64
2023/03/19 10:49:56;;;;;;;0.80;0.80;;;;;;;;;;4571478;28;20089;-63
2023/03/19 10:52:20;;;;;;;0.70;0.70;;;;;;;;;;4572034;27;20044;-63
2023/03/19 10:54:31;;;;;;;0.70;0.70;;;;;;;;;;4571212;28;20040;-63
2023/03/19 10:56:45;;;;;;;0.70;0.70;;;;;;;;;;4570106;28;22266;-64
2023/03/19 10:59:05;;;;;;;0.70;0.70;;;;;;;;;;4571963;28;20079;-63
2023/03/19 11:01:15;;;;;;;0.70;0.70;;;;;;;;;;4572136;28;20155;-63
2023/03/19 11:03:29;;;;;;;0.70;0.70;;;;;;;;;;4573119;28;20156;-63
2023/03/19 11:05:39;;;;;;;0.85;0.82;;;;;;;;;;4573318;27;20051;-64
2023/03/19 11:08:05;;;;;;;0.80;0.77;;;;;;;;;;4570012;28;20047;-60
2023/03/19 11:10:16;;;;;;;1.35;0.80;;;;;;;;;;4571147;27;20075;-62
2023/03/19 11:12:36;;;;;;;0.80;0.80;;;;;;;;;;4570509;28;20024;-63
2023/03/19 11:14:49;;;;;;;1.00;0.85;;;;;;;;;;4573785;28;20028;-62
2023/03/19 11:17:15;;;;;;;0.70;0.70;;;;;;;;;;4568821;28;20114;-63
2023/03/19 11:19:28;;;;;;;1.15;0.80;;;;;;;;;;4571737;28;20051;-62
2023/03/19 11:21:39;;;;;;;0.80;0.70;;;;;;;;;;4569092;28;20024;-62
2023/03/19 11:23:59;;;;;;;0.80;0.80;;;;;;;;;;4570332;28;20028;-62
2023/03/19 11:26:17;;;;;;;0.80;0.80;;;;;;;;;;4571210;28;20036;-62
2023/03/19 11:28:32;;;;;;;0.82;0.82;;;;;;;;;;4571696;27;21245;-63
2023/03/19 11:30:48;;;;;;;0.80;0.73;;;;;;;;;;4571487;28;20116;-63
2023/03/19 11:33:17;;;;;;;1.17;1.08;;;;;;;;;;4571186;28;20528;-63
2023/03/19 11:35:39;;;;;;;0.77;0.77;;;;;;;;;;4571350;28;20028;-63
2023/03/19 11:37:59;;;;;;;0.70;0.70;;;;;;;;;;4556719;27;20049;-63
2023/03/19 11:40:26;;;;;;;0.80;0.80;;;;;;;;;;4571583;28;21582;-63
2023/03/19 11:42:39;;;;;;;1.63;0.90;;;;;;;;;;4569438;28;20038;-62
2023/03/19 11:45:03;;;;;;;0.88;0.82;;;;;;;;;;4568630;27;20912;-62
2023/03/19 11:47:38;;;;;;;0.90;0.90;;;;;;;;;;4568876;28;20144;-62
2023/03/19 11:49:48;;;;;;;0.75;0.75;;;;;;;;;;4568403;28;20040;-63
2023/03/19 11:52:04;;;;;;;1.00;0.90;;;;;;;;;;4573146;27;20857;-65
2023/03/19 11:54:40;;;;;;;1.10;1.00;;;;;;;;;;4574109;28;20091;-62
2023/03/19 11:57:07;;;;;;;0.95;0.90;;;;;;;;;;4586702;27;20156;-63
2023/03/19 11:59:49;;;;;;;1.30;1.20;;;;;;;;;;4570630;28;20090;-63
2023/03/19 12:02:32;;;;;;;0.80;0.80;;;;;;;;;;4572224;28;20871;-64
2023/03/19 12:05:03;;;;;;;0.60;0.60;;;;;;;;;;4555946;28;20032;-64
2023/03/19 12:07:22;;;;;;;0.50;0.50;;;;;;;;;;4571345;28;20068;-64
2023/03/19 12:09:45;;;;;;;0.52;0.50;;;;;;;;;;4572232;28;20031;-63
2023/03/19 12:12:09;;;;;;;0.50;0.50;;;;;;;;;;4570522;28;20036;-63
2023/03/19 12:14:24;;;;;;;0.73;0.50;;;;;;;;;;4572089;27;20028;-63
2023/03/19 12:16:54;;;;;;;1.20;0.60;;;;;;;;;;4573417;28;20580;-64
2023/03/19 12:19:11;;;;;;;0.60;0.60;;;;;;;;;;4572492;27;20050;-63
2023/03/19 12:21:49;;;;;;;0.70;0.70;;;;;;;;;;4572469;28;20032;-63
2023/03/19 12:24:18;;;;;;;;;;;;;;;;;;4572243;28;20033;-64
2023/03/19 12:26:41;;;;;;;0.60;0.60;;;;;;;;;;4567699;27;20034;-61
2023/03/19 12:29:20;;;;;;;0.60;0.60;;;;;;;;;;4571398;28;20089;-60
2023/03/19 12:32:06;;;;;;;0.80;0.80;;;;;;;;;;4556329;28;21377;-63
2023/03/19 12:34:28;;;;;;;0.93;0.88;;;;;;;;;;4570929;28;20128;-62
2023/03/19 12:37:02;;;;;;;0.88;0.82;;;;;;;;;;4570639;28;20120;-59
2023/03/19 12:39:18;;;;;;;1.00;0.93;;;;;;;;;;4546070;28;20610;-63
2023/03/19 12:41:29;;;;;;;1.45;1.30;;;;;;;;;;4573251;28;20035;-63
2023/03/19 12:44:07;;;;;;;1.30;1.10;;;;;;;;;;4557223;28;20610;-63
2023/03/19 12:46:31;;;;;;;1.83;1.30;;;;;;;;;;4573684;28;20113;-63
2023/03/19 12:49:05;;;;;;;1.65;1.20;;;;;;;;;;4541170;28;20099;-65
2023/03/19 12:51:19;;;;;;;1.20;1.10;;;;;;;;;;4556062;28;20710;-67
2023/03/19 12:53:31;;;;;;;1.42;0.80;;;;;;;;;;4571313;28;20123;-65
2023/03/19 12:55:47;;;;;;;1.13;1.02;;;;;;;;;;4570660;28;20094;-64
2023/03/19 12:58:00;;;;;;;0.80;0.80;;;;;;;;;;4553303;28;20040;-65
2023/03/19 13:00:29;;;;;;;1.35;0.93;;;;;;;;;;4551576;28;20266;-65
2023/03/19 13:02:47;;;;;;;0.90;0.80;;;;;;;;;;4569833;28;20040;-66
2023/03/19 13:05:21;;;;;;;0.85;0.77;;;;;;;;;;4555163;28;20068;-65
2023/03/19 13:07:41;;;;;;;1.02;0.90;;;;;;;;;;4552156;27;20117;-65
2023/03/19 13:09:58;;;;;;;0.85;0.85;;;;;;;;;;4552539;28;20156;-65
2023/03/19 13:12:21;;;;;;;1.10;0.80;;;;;;;;;;4554979;28;20650;-65
2023/03/19 13:15:06;;;;;;;1.00;0.90;;;;;;;;;;4554871;28;20560;-65
2023/03/19 13:17:44;;;;;;;1.40;1.20;;;;;;;;;;4570144;28;20029;-65
2023/03/19 13:19:55;;;;;;;1.30;1.20;;;;;;;;;;4570214;28;20059;-65
2023/03/19 13:22:10;;;;;;;2.28;1.60;;;;;;;;;;4570344;28;20053;-65
2023/03/19 13:24:27;;;;;;;1.40;1.30;;;;;;;;;;4552168;28;20047;-65
2023/03/19 13:26:37;;;;;;;1.58;1.40;;;;;;;;;;4568889;28;20037;-66
2023/03/19 13:29:07;;;;;;;1.50;1.38;;;;;;;;;;4569729;28;20040;-65